Hauptseite
METAR-TAF:

METAR-TAF

Flughäfen :

Čáslav, Tschechien

Breite: 49-56-23N, Länge: 15-22-55E, Höhe: 242 m

Beobachtung

Neuester Wetterbericht von vor 43 Minuten, um 15:00 UTC
Wind 17 kt aus Südost
Temperatur 19°C
Luftfeuchtigkeit 40%
Luftdruck 1018 hPa
Sichtweite 10 km oder mehr
keine Wolken unter 1500 m und keine Kumulonimbus oder Gewitterwolken

METAR: LKCV 151500Z 14017KT CAVOK 19/05 Q1018 NOSIG RMK BLU BLU

Zeit: 17:43 (15:43 UTC)

Prognose

Neuester Wetterbericht von vor 4 Stunden und 43 Minuten, um 11:00 UTC
Gültige Prognose vom 15 um 12 UTC bis 16 um 12 UTC
Wind 16 kt aus Süd/Südost, Böen bis zu 26 kt
Sichtweite 10 km oder mehr
keine Wolken unter 1500 m und keine Kumulonimbus oder Gewitterwolken
Übergehend zu
vom 15 um 17 UTC bis 15 um 19 UTC
Wind 10 kt aus Süd/Südost

TAF: LKCV 151100Z 1512/1612 16016G26KT CAVOK BECMG 1517/1519 15010KT

Wetterbeobachtungen und Prognosen von mehr als 4000 Flughäfen (METAR und TAF Bericht).

Die verfügbaren Stationen werden durch gelbe und rote Markierungen auf der Karte dargestellt.

Führen Sie die Maus auf sie, um den Namen der Station zu sehen.

Darauf klicken, um die Beobachtung von Wetterbeobachtungen und Prognosen zu sehen.

Um die Karte zu ändern : klicken Sie auf den grünen Tasten mit einem schwarzen Kreuz Zum Vergrößern, auf den grünen Button mit einem Gedankenstrich zu verkleinern, oder auf die grünen Pfeile für benachbarte Karten.


METAR-TAF: